sensor_id;sensor_type;location;lat;lon;timestamp;temperature;humidity
22742;DHT22;11538;48.884;8.696;2022-12-10T00:01:18;3.30;99.90
22742;DHT22;11538;48.884;8.696;2022-12-10T00:03:45;3.30;99.90
22742;DHT22;11538;48.884;8.696;2022-12-10T00:06:14;3.30;99.90
22742;DHT22;11538;48.884;8.696;2022-12-10T00:08:45;3.30;99.90
22742;DHT22;11538;48.884;8.696;2022-12-10T00:11:13;3.30;99.90
22742;DHT22;11538;48.884;8.696;2022-12-10T00:13:42;3.30;99.90
22742;DHT22;11538;48.884;8.696;2022-12-10T00:16:10;3.40;99.90
22742;DHT22;11538;48.884;8.696;2022-12-10T00:18:39;3.40;99.90
22742;DHT22;11538;48.884;8.696;2022-12-10T00:21:07;3.40;99.90
22742;DHT22;11538;48.884;8.696;2022-12-10T00:23:36;3.40;99.90
22742;DHT22;11538;48.884;8.696;2022-12-10T00:26:15;3.40;99.90
22742;DHT22;11538;48.884;8.696;2022-12-10T00:28:45;3.40;99.90
22742;DHT22;11538;48.884;8.696;2022-12-10T00:31:15;3.30;99.90
22742;DHT22;11538;48.884;8.696;2022-12-10T00:33:44;3.30;99.90
22742;DHT22;11538;48.884;8.696;2022-12-10T00:36:17;3.30;99.90
22742;DHT22;11538;48.884;8.696;2022-12-10T00:38:46;3.30;99.90
22742;DHT22;11538;48.884;8.696;2022-12-10T00:41:14;3.30;99.90
22742;DHT22;11538;48.884;8.696;2022-12-10T00:43:42;3.30;99.90
22742;DHT22;11538;48.884;8.696;2022-12-10T00:46:09;3.30;99.90
22742;DHT22;11538;48.884;8.696;2022-12-10T00:48:37;3.30;99.90
22742;DHT22;11538;48.884;8.696;2022-12-10T00:51:06;3.30;99.90
22742;DHT22;11538;48.884;8.696;2022-12-10T00:53:36;3.30;99.90
22742;DHT22;11538;48.884;8.696;2022-12-10T00:56:05;3.30;99.90
22742;DHT22;11538;48.884;8.696;2022-12-10T00:58:33;3.30;99.90
22742;DHT22;11538;48.884;8.696;2022-12-10T01:01:12;3.30;99.90
22742;DHT22;11538;48.884;8.696;2022-12-10T01:03:42;3.20;99.90
22742;DHT22;11538;48.884;8.696;2022-12-10T01:06:10;3.30;99.90
22742;DHT22;11538;48.884;8.696;2022-12-10T01:08:44;3.20;99.90
22742;DHT22;11538;48.884;8.696;2022-12-10T01:11:12;3.20;99.90
22742;DHT22;11538;48.884;8.696;2022-12-10T01:13:41;3.30;99.90
22742;DHT22;11538;48.884;8.696;2022-12-10T01:16:09;3.30;99.90
22742;DHT22;11538;48.884;8.696;2022-12-10T01:18:38;3.20;99.90
22742;DHT22;11538;48.884;8.696;2022-12-10T01:21:06;3.20;99.90
22742;DHT22;11538;48.884;8.696;2022-12-10T01:23:36;3.20;99.90
22742;DHT22;11538;48.884;8.696;2022-12-10T01:26:09;3.20;99.90
22742;DHT22;11538;48.884;8.696;2022-12-10T01:28:38;3.20;99.90
22742;DHT22;11538;48.884;8.696;2022-12-10T01:31:18;3.30;99.90
22742;DHT22;11538;48.884;8.696;2022-12-10T01:33:52;3.20;99.90
22742;DHT22;11538;48.884;8.696;2022-12-10T01:36:21;3.30;99.90
22742;DHT22;11538;48.884;8.696;2022-12-10T01:38:50;3.30;99.90
22742;DHT22;11538;48.884;8.696;2022-12-10T01:46:36;3.20;99.90
22742;DHT22;11538;48.884;8.696;2022-12-10T01:49:06;3.20;99.90
22742;DHT22;11538;48.884;8.696;2022-12-10T01:51:36;3.20;99.90
22742;DHT22;11538;48.884;8.696;2022-12-10T01:54:05;3.30;99.90
22742;DHT22;11538;48.884;8.696;2022-12-10T01:56:44;3.30;99.90
22742;DHT22;11538;48.884;8.696;2022-12-10T01:59:13;3.30;99.90
22742;DHT22;11538;48.884;8.696;2022-12-10T02:04:22;3.20;99.90
22742;DHT22;11538;48.884;8.696;2022-12-10T02:06:54;3.30;99.90
22742;DHT22;11538;48.884;8.696;2022-12-10T02:09:43;3.20;99.90
22742;DHT22;11538;48.884;8.696;2022-12-10T02:12:23;3.20;99.90
22742;DHT22;11538;48.884;8.696;2022-12-10T02:15:04;3.20;99.90
22742;DHT22;11538;48.884;8.696;2022-12-10T02:18:05;3.20;99.90
22742;DHT22;11538;48.884;8.696;2022-12-10T02:20:43;3.30;99.90
22742;DHT22;11538;48.884;8.696;2022-12-10T02:23:16;3.30;99.90
22742;DHT22;11538;48.884;8.696;2022-12-10T02:25:48;3.30;99.90
22742;DHT22;11538;48.884;8.696;2022-12-10T02:28:28;3.30;99.90
22742;DHT22;11538;48.884;8.696;2022-12-10T02:31:03;3.30;99.90
22742;DHT22;11538;48.884;8.696;2022-12-10T02:33:31;3.30;99.90
22742;DHT22;11538;48.884;8.696;2022-12-10T02:35:59;3.30;99.90
22742;DHT22;11538;48.884;8.696;2022-12-10T02:38:32;3.30;99.90
22742;DHT22;11538;48.884;8.696;2022-12-10T02:41:04;3.30;99.90
22742;DHT22;11538;48.884;8.696;2022-12-10T02:43:36;3.30;99.90
22742;DHT22;11538;48.884;8.696;2022-12-10T02:46:04;3.30;99.90
22742;DHT22;11538;48.884;8.696;2022-12-10T02:48:32;3.30;99.90
22742;DHT22;11538;48.884;8.696;2022-12-10T02:51:01;3.20;99.90
22742;DHT22;11538;48.884;8.696;2022-12-10T02:53:27;3.20;99.90
22742;DHT22;11538;48.884;8.696;2022-12-10T02:58:43;3.20;99.90
22742;DHT22;11538;48.884;8.696;2022-12-10T03:03:59;3.20;99.90
22742;DHT22;11538;48.884;8.696;2022-12-10T03:06:38;3.20;99.90
22742;DHT22;11538;48.884;8.696;2022-12-10T03:09:18;3.20;99.90
22742;DHT22;11538;48.884;8.696;2022-12-10T03:11:57;3.20;99.90
22742;DHT22;11538;48.884;8.696;2022-12-10T03:14:31;3.20;99.90
22742;DHT22;11538;48.884;8.696;2022-12-10T03:17:00;3.20;99.90
22742;DHT22;11538;48.884;8.696;2022-12-10T03:19:30;3.20;99.90
22742;DHT22;11538;48.884;8.696;2022-12-10T03:22:03;3.20;99.90
22742;DHT22;11538;48.884;8.696;2022-12-10T03:24:32;3.20;99.90
22742;DHT22;11538;48.884;8.696;2022-12-10T03:27:01;3.20;99.90
22742;DHT22;11538;48.884;8.696;2022-12-10T03:29:35;3.20;99.90
22742;DHT22;11538;48.884;8.696;2022-12-10T03:32:05;3.10;99.90
22742;DHT22;11538;48.884;8.696;2022-12-10T03:34:33;3.10;99.90
22742;DHT22;11538;48.884;8.696;2022-12-10T03:37:01;3.10;99.90
22742;DHT22;11538;48.884;8.696;2022-12-10T03:39:28;3.10;99.90
22742;DHT22;11538;48.884;8.696;2022-12-10T03:41:55;3.10;99.90
22742;DHT22;11538;48.884;8.696;2022-12-10T03:44:29;3.10;99.90
22742;DHT22;11538;48.884;8.696;2022-12-10T03:46:57;3.10;99.90
22742;DHT22;11538;48.884;8.696;2022-12-10T03:49:24;3.10;99.90
22742;DHT22;11538;48.884;8.696;2022-12-10T03:51:51;3.10;99.90
22742;DHT22;11538;48.884;8.696;2022-12-10T03:54:18;3.10;99.90
22742;DHT22;11538;48.884;8.696;2022-12-10T03:56:45;3.10;99.90
22742;DHT22;11538;48.884;8.696;2022-12-10T03:59:12;3.10;99.90
22742;DHT22;11538;48.884;8.696;2022-12-10T04:01:39;3.10;99.90
22742;DHT22;11538;48.884;8.696;2022-12-10T04:04:07;3.20;99.90
22742;DHT22;11538;48.884;8.696;2022-12-10T04:06:36;3.20;99.90
22742;DHT22;11538;48.884;8.696;2022-12-10T04:09:03;3.20;99.90
22742;DHT22;11538;48.884;8.696;2022-12-10T04:11:30;3.20;99.90
22742;DHT22;11538;48.884;8.696;2022-12-10T04:13:57;3.10;99.90
22742;DHT22;11538;48.884;8.696;2022-12-10T04:16:42;3.10;99.90
22742;DHT22;11538;48.884;8.696;2022-12-10T04:19:11;3.10;99.90
22742;DHT22;11538;48.884;8.696;2022-12-10T04:21:39;3.10;99.90
22742;DHT22;11538;48.884;8.696;2022-12-10T04:24:27;3.10;99.90
22742;DHT22;11538;48.884;8.696;2022-12-10T04:29:44;3.10;99.90
22742;DHT22;11538;48.884;8.696;2022-12-10T04:32:11;3.10;99.90
22742;DHT22;11538;48.884;8.696;2022-12-10T04:34:38;3.10;99.90
22742;DHT22;11538;48.884;8.696;2022-12-10T04:37:05;3.10;99.90
22742;DHT22;11538;48.884;8.696;2022-12-10T04:39:32;3.10;99.90
22742;DHT22;11538;48.884;8.696;2022-12-10T04:42:00;3.10;99.90
22742;DHT22;11538;48.884;8.696;2022-12-10T04:44:27;3.10;99.90
22742;DHT22;11538;48.884;8.696;2022-12-10T04:46:54;3.10;99.90
22742;DHT22;11538;48.884;8.696;2022-12-10T04:49:21;3.10;99.90
22742;DHT22;11538;48.884;8.696;2022-12-10T04:51:49;3.10;99.90
22742;DHT22;11538;48.884;8.696;2022-12-10T04:54:16;3.10;99.90
22742;DHT22;11538;48.884;8.696;2022-12-10T04:56:43;3.10;99.90
22742;DHT22;11538;48.884;8.696;2022-12-10T04:59:10;3.10;99.90
22742;DHT22;11538;48.884;8.696;2022-12-10T05:01:37;3.10;99.90
22742;DHT22;11538;48.884;8.696;2022-12-10T05:04:05;3.10;99.90
22742;DHT22;11538;48.884;8.696;2022-12-10T05:06:34;3.00;99.90
22742;DHT22;11538;48.884;8.696;2022-12-10T05:09:01;3.10;99.90
22742;DHT22;11538;48.884;8.696;2022-12-10T05:11:29;3.00;99.90
22742;DHT22;11538;48.884;8.696;2022-12-10T05:13:57;3.00;99.90
22742;DHT22;11538;48.884;8.696;2022-12-10T05:16:25;3.00;99.90
22742;DHT22;11538;48.884;8.696;2022-12-10T05:18:53;3.00;99.90
22742;DHT22;11538;48.884;8.696;2022-12-10T05:21:22;3.00;99.90
22742;DHT22;11538;48.884;8.696;2022-12-10T05:23:50;3.00;99.90
22742;DHT22;11538;48.884;8.696;2022-12-10T05:26:19;3.00;99.90
22742;DHT22;11538;48.884;8.696;2022-12-10T05:28:49;3.00;99.90
22742;DHT22;11538;48.884;8.696;2022-12-10T05:31:25;2.90;99.90
22742;DHT22;11538;48.884;8.696;2022-12-10T05:33:54;2.90;99.90
22742;DHT22;11538;48.884;8.696;2022-12-10T05:36:22;2.90;99.90
22742;DHT22;11538;48.884;8.696;2022-12-10T05:38:56;2.90;99.90
22742;DHT22;11538;48.884;8.696;2022-12-10T05:41:24;2.90;99.90
22742;DHT22;11538;48.884;8.696;2022-12-10T05:43:56;2.90;99.90
22742;DHT22;11538;48.884;8.696;2022-12-10T05:46:25;2.90;99.90
22742;DHT22;11538;48.884;8.696;2022-12-10T05:48:53;2.90;99.90
22742;DHT22;11538;48.884;8.696;2022-12-10T05:51:22;2.90;99.90
22742;DHT22;11538;48.884;8.696;2022-12-10T05:53:51;2.90;99.90
22742;DHT22;11538;48.884;8.696;2022-12-10T05:56:21;2.90;99.90
22742;DHT22;11538;48.884;8.696;2022-12-10T05:58:51;2.90;99.90
22742;DHT22;11538;48.884;8.696;2022-12-10T06:01:20;2.90;99.90
22742;DHT22;11538;48.884;8.696;2022-12-10T06:03:50;2.90;99.90
22742;DHT22;11538;48.884;8.696;2022-12-10T06:06:22;3.00;99.90
22742;DHT22;11538;48.884;8.696;2022-12-10T06:08:50;2.90;99.90
22742;DHT22;11538;48.884;8.696;2022-12-10T06:11:18;2.90;99.90
22742;DHT22;11538;48.884;8.696;2022-12-10T06:13:45;2.90;99.90
22742;DHT22;11538;48.884;8.696;2022-12-10T06:16:18;2.90;99.90
22742;DHT22;11538;48.884;8.696;2022-12-10T06:18:45;2.90;99.90
22742;DHT22;11538;48.884;8.696;2022-12-10T06:21:14;2.80;99.90
22742;DHT22;11538;48.884;8.696;2022-12-10T06:23:42;2.80;99.90
22742;DHT22;11538;48.884;8.696;2022-12-10T06:26:14;2.80;99.90
22742;DHT22;11538;48.884;8.696;2022-12-10T06:28:43;2.80;99.90
22742;DHT22;11538;48.884;8.696;2022-12-10T06:31:11;2.80;99.90
22742;DHT22;11538;48.884;8.696;2022-12-10T06:33:39;2.80;99.90
22742;DHT22;11538;48.884;8.696;2022-12-10T06:36:06;2.90;99.90
22742;DHT22;11538;48.884;8.696;2022-12-10T06:38:35;2.90;99.90
22742;DHT22;11538;48.884;8.696;2022-12-10T06:41:06;2.90;99.90
22742;DHT22;11538;48.884;8.696;2022-12-10T06:43:34;2.90;99.90
22742;DHT22;11538;48.884;8.696;2022-12-10T06:46:05;2.90;99.90
22742;DHT22;11538;48.884;8.696;2022-12-10T06:48:33;2.90;99.90
22742;DHT22;11538;48.884;8.696;2022-12-10T06:51:01;2.90;99.90
22742;DHT22;11538;48.884;8.696;2022-12-10T06:53:29;2.90;99.90
22742;DHT22;11538;48.884;8.696;2022-12-10T06:55:57;2.90;99.90
22742;DHT22;11538;48.884;8.696;2022-12-10T06:58:26;2.90;99.90
22742;DHT22;11538;48.884;8.696;2022-12-10T07:01:04;2.80;99.90
22742;DHT22;11538;48.884;8.696;2022-12-10T07:03:32;2.80;99.90
22742;DHT22;11538;48.884;8.696;2022-12-10T07:06:00;2.90;99.90
22742;DHT22;11538;48.884;8.696;2022-12-10T07:08:27;2.90;99.90
22742;DHT22;11538;48.884;8.696;2022-12-10T07:10:54;2.90;99.90
22742;DHT22;11538;48.884;8.696;2022-12-10T07:13:22;2.90;99.90
22742;DHT22;11538;48.884;8.696;2022-12-10T07:15:56;2.90;99.90
22742;DHT22;11538;48.884;8.696;2022-12-10T07:18:24;2.90;99.90
22742;DHT22;11538;48.884;8.696;2022-12-10T07:20:51;2.90;99.90
22742;DHT22;11538;48.884;8.696;2022-12-10T07:23:18;2.90;99.90
22742;DHT22;11538;48.884;8.696;2022-12-10T07:25:46;2.90;99.90
22742;DHT22;11538;48.884;8.696;2022-12-10T07:28:12;2.90;99.90
22742;DHT22;11538;48.884;8.696;2022-12-10T07:30:39;2.90;99.90
22742;DHT22;11538;48.884;8.696;2022-12-10T07:33:06;2.80;99.90
22742;DHT22;11538;48.884;8.696;2022-12-10T07:35:33;2.80;99.90
22742;DHT22;11538;48.884;8.696;2022-12-10T07:38:00;2.90;99.90
22742;DHT22;11538;48.884;8.696;2022-12-10T07:40:27;2.90;99.90
22742;DHT22;11538;48.884;8.696;2022-12-10T07:42:54;2.90;99.90
22742;DHT22;11538;48.884;8.696;2022-12-10T07:45:20;2.90;99.90
22742;DHT22;11538;48.884;8.696;2022-12-10T07:47:47;2.90;99.90
22742;DHT22;11538;48.884;8.696;2022-12-10T07:50:14;2.90;99.90
22742;DHT22;11538;48.884;8.696;2022-12-10T07:52:41;2.90;99.90
22742;DHT22;11538;48.884;8.696;2022-12-10T07:55:08;2.90;99.90
22742;DHT22;11538;48.884;8.696;2022-12-10T07:57:34;2.90;99.90
22742;DHT22;11538;48.884;8.696;2022-12-10T08:00:02;2.90;99.90
22742;DHT22;11538;48.884;8.696;2022-12-10T08:02:29;2.90;99.90
22742;DHT22;11538;48.884;8.696;2022-12-10T08:04:56;2.90;99.90
22742;DHT22;11538;48.884;8.696;2022-12-10T08:07:23;2.90;99.90
22742;DHT22;11538;48.884;8.696;2022-12-10T08:09:50;2.90;99.90
22742;DHT22;11538;48.884;8.696;2022-12-10T08:12:17;2.90;99.90
22742;DHT22;11538;48.884;8.696;2022-12-10T08:14:43;2.90;99.90
22742;DHT22;11538;48.884;8.696;2022-12-10T08:17:10;2.90;99.90
22742;DHT22;11538;48.884;8.696;2022-12-10T08:19:37;2.90;99.90
22742;DHT22;11538;48.884;8.696;2022-12-10T08:22:04;3.00;99.90
22742;DHT22;11538;48.884;8.696;2022-12-10T08:24:30;2.90;99.90
22742;DHT22;11538;48.884;8.696;2022-12-10T08:26:57;3.00;99.90
22742;DHT22;11538;48.884;8.696;2022-12-10T08:29:24;3.00;99.90
22742;DHT22;11538;48.884;8.696;2022-12-10T08:31:51;3.00;99.90
22742;DHT22;11538;48.884;8.696;2022-12-10T08:34:18;3.00;99.90
22742;DHT22;11538;48.884;8.696;2022-12-10T08:36:45;3.00;99.90
22742;DHT22;11538;48.884;8.696;2022-12-10T08:39:12;3.00;99.90
22742;DHT22;11538;48.884;8.696;2022-12-10T08:41:43;3.00;99.90
22742;DHT22;11538;48.884;8.696;2022-12-10T08:44:11;2.90;99.90
22742;DHT22;11538;48.884;8.696;2022-12-10T08:46:39;3.00;99.90
22742;DHT22;11538;48.884;8.696;2022-12-10T08:49:06;3.00;99.90
22742;DHT22;11538;48.884;8.696;2022-12-10T08:51:33;3.00;99.90
22742;DHT22;11538;48.884;8.696;2022-12-10T08:54:00;3.00;99.90
22742;DHT22;11538;48.884;8.696;2022-12-10T08:56:27;3.00;99.90
22742;DHT22;11538;48.884;8.696;2022-12-10T08:58:54;3.10;99.90
22742;DHT22;11538;48.884;8.696;2022-12-10T09:01:20;3.10;99.90
22742;DHT22;11538;48.884;8.696;2022-12-10T09:03:48;3.10;99.90
22742;DHT22;11538;48.884;8.696;2022-12-10T09:06:18;3.10;99.90
22742;DHT22;11538;48.884;8.696;2022-12-10T09:08:47;3.10;99.90
22742;DHT22;11538;48.884;8.696;2022-12-10T09:11:18;3.10;99.90
22742;DHT22;11538;48.884;8.696;2022-12-10T09:13:48;3.10;99.90
22742;DHT22;11538;48.884;8.696;2022-12-10T09:16:15;3.10;99.90
22742;DHT22;11538;48.884;8.696;2022-12-10T09:18:43;3.20;99.90
22742;DHT22;11538;48.884;8.696;2022-12-10T09:21:11;3.20;99.90
22742;DHT22;11538;48.884;8.696;2022-12-10T09:23:40;3.20;99.90
22742;DHT22;11538;48.884;8.696;2022-12-10T09:26:08;3.20;99.90
22742;DHT22;11538;48.884;8.696;2022-12-10T09:28:37;3.20;99.90
22742;DHT22;11538;48.884;8.696;2022-12-10T09:31:04;3.20;99.90
22742;DHT22;11538;48.884;8.696;2022-12-10T09:33:39;3.20;99.90
22742;DHT22;11538;48.884;8.696;2022-12-10T09:36:07;3.20;99.90
22742;DHT22;11538;48.884;8.696;2022-12-10T09:38:39;3.20;99.90
22742;DHT22;11538;48.884;8.696;2022-12-10T09:41:19;3.20;99.90
22742;DHT22;11538;48.884;8.696;2022-12-10T09:46:43;3.30;99.90
22742;DHT22;11538;48.884;8.696;2022-12-10T09:52:22;3.30;99.90
22742;DHT22;11538;48.884;8.696;2022-12-10T09:54:53;3.30;99.90
22742;DHT22;11538;48.884;8.696;2022-12-10T09:57:28;3.30;99.90
22742;DHT22;11538;48.884;8.696;2022-12-10T10:00:03;3.30;99.90
22742;DHT22;11538;48.884;8.696;2022-12-10T10:02:54;3.30;99.90
22742;DHT22;11538;48.884;8.696;2022-12-10T10:05:29;3.30;99.90
22742;DHT22;11538;48.884;8.696;2022-12-10T10:08:04;3.30;99.90
22742;DHT22;11538;48.884;8.696;2022-12-10T10:10:35;3.30;99.90
22742;DHT22;11538;48.884;8.696;2022-12-10T10:15:35;3.40;99.90
22742;DHT22;11538;48.884;8.696;2022-12-10T10:20:42;3.40;99.90
22742;DHT22;11538;48.884;8.696;2022-12-10T10:23:11;3.40;99.90
22742;DHT22;11538;48.884;8.696;2022-12-10T10:25:42;3.40;99.90
22742;DHT22;11538;48.884;8.696;2022-12-10T10:28:16;3.40;99.90
22742;DHT22;11538;48.884;8.696;2022-12-10T10:30:45;3.50;99.90
22742;DHT22;11538;48.884;8.696;2022-12-10T10:33:13;3.50;99.90
22742;DHT22;11538;48.884;8.696;2022-12-10T10:35:49;3.50;99.90
22742;DHT22;11538;48.884;8.696;2022-12-10T10:38:21;3.40;99.90
22742;DHT22;11538;48.884;8.696;2022-12-10T10:40:59;3.40;99.90
22742;DHT22;11538;48.884;8.696;2022-12-10T10:43:32;3.40;99.90
22742;DHT22;11538;48.884;8.696;2022-12-10T10:46:06;3.40;99.90
22742;DHT22;11538;48.884;8.696;2022-12-10T10:48:47;3.40;99.90
22742;DHT22;11538;48.884;8.696;2022-12-10T10:53:48;3.40;99.90
22742;DHT22;11538;48.884;8.696;2022-12-10T10:56:20;3.40;99.90
22742;DHT22;11538;48.884;8.696;2022-12-10T11:01:49;3.30;99.90
22742;DHT22;11538;48.884;8.696;2022-12-10T11:04:18;3.30;99.90
22742;DHT22;11538;48.884;8.696;2022-12-10T11:06:59;3.30;99.90
22742;DHT22;11538;48.884;8.696;2022-12-10T11:09:28;3.30;99.90
22742;DHT22;11538;48.884;8.696;2022-12-10T11:11:58;3.40;99.90
22742;DHT22;11538;48.884;8.696;2022-12-10T11:14:30;3.30;99.90
22742;DHT22;11538;48.884;8.696;2022-12-10T11:19:36;3.40;99.90
22742;DHT22;11538;48.884;8.696;2022-12-10T11:25:15;3.30;99.90
22742;DHT22;11538;48.884;8.696;2022-12-10T11:27:49;3.30;99.90
22742;DHT22;11538;48.884;8.696;2022-12-10T11:30:25;3.30;99.90
22742;DHT22;11538;48.884;8.696;2022-12-10T11:35:47;3.30;99.90
22742;DHT22;11538;48.884;8.696;2022-12-10T11:41:12;3.30;99.90
22742;DHT22;11538;48.884;8.696;2022-12-10T11:44:16;3.30;99.90
22742;DHT22;11538;48.884;8.696;2022-12-10T11:52:34;3.30;99.90
22742;DHT22;11538;48.884;8.696;2022-12-10T11:58:11;3.30;99.90
22742;DHT22;11538;48.884;8.696;2022-12-10T12:12:12;3.30;99.90
22742;DHT22;11538;48.884;8.696;2022-12-10T12:15:02;3.40;99.90
22742;DHT22;11538;48.884;8.696;2022-12-10T12:17:37;3.30;99.90
22742;DHT22;11538;48.884;8.696;2022-12-10T12:20:14;3.40;99.90
22742;DHT22;11538;48.884;8.696;2022-12-10T12:22:44;3.40;99.90
22742;DHT22;11538;48.884;8.696;2022-12-10T12:25:24;3.40;99.90
22742;DHT22;11538;48.884;8.696;2022-12-10T12:28:10;3.40;99.90
22742;DHT22;11538;48.884;8.696;2022-12-10T12:30:41;3.40;99.90
22742;DHT22;11538;48.884;8.696;2022-12-10T12:33:13;3.40;99.90
22742;DHT22;11538;48.884;8.696;2022-12-10T12:41:05;3.40;99.90
22742;DHT22;11538;48.884;8.696;2022-12-10T12:43:42;3.40;99.90
22742;DHT22;11538;48.884;8.696;2022-12-10T12:46:26;3.50;99.90
22742;DHT22;11538;48.884;8.696;2022-12-10T12:49:29;3.40;99.90
22742;DHT22;11538;48.884;8.696;2022-12-10T12:54:53;3.40;99.90
22742;DHT22;11538;48.884;8.696;2022-12-10T12:57:33;3.40;99.90
22742;DHT22;11538;48.884;8.696;2022-12-10T13:00:25;3.40;99.90
22742;DHT22;11538;48.884;8.696;2022-12-10T13:05:50;3.30;99.90
22742;DHT22;11538;48.884;8.696;2022-12-10T13:13:33;3.20;99.90
22742;DHT22;11538;48.884;8.696;2022-12-10T13:22:01;3.20;99.90
22742;DHT22;11538;48.884;8.696;2022-12-10T13:24:59;3.10;99.90
22742;DHT22;11538;48.884;8.696;2022-12-10T13:27:39;3.10;99.90
22742;DHT22;11538;48.884;8.696;2022-12-10T13:32:54;3.10;99.90
22742;DHT22;11538;48.884;8.696;2022-12-10T13:35:31;3.10;99.90
22742;DHT22;11538;48.884;8.696;2022-12-10T13:38:18;3.10;99.90
22742;DHT22;11538;48.884;8.696;2022-12-10T13:40:56;3.10;99.90
22742;DHT22;11538;48.884;8.696;2022-12-10T13:43:43;3.10;99.90
22742;DHT22;11538;48.884;8.696;2022-12-10T13:46:51;3.10;99.90
22742;DHT22;11538;48.884;8.696;2022-12-10T13:49:25;3.10;99.90
22742;DHT22;11538;48.884;8.696;2022-12-10T13:52:02;3.20;99.90
22742;DHT22;11538;48.884;8.696;2022-12-10T13:57:32;3.20;99.90
22742;DHT22;11538;48.884;8.696;2022-12-10T14:00:14;3.20;99.90
22742;DHT22;11538;48.884;8.696;2022-12-10T14:05:42;3.20;99.90
22742;DHT22;11538;48.884;8.696;2022-12-10T14:08:16;3.20;99.90
22742;DHT22;11538;48.884;8.696;2022-12-10T14:10:46;3.20;99.90
22742;DHT22;11538;48.884;8.696;2022-12-10T14:13:15;3.20;99.90
22742;DHT22;11538;48.884;8.696;2022-12-10T14:15:55;3.20;99.90
22742;DHT22;11538;48.884;8.696;2022-12-10T14:18:25;3.20;99.90
22742;DHT22;11538;48.884;8.696;2022-12-10T14:20:54;3.20;99.90
22742;DHT22;11538;48.884;8.696;2022-12-10T14:26:03;3.20;99.90
22742;DHT22;11538;48.884;8.696;2022-12-10T14:28:32;3.20;99.90
22742;DHT22;11538;48.884;8.696;2022-12-10T14:31:06;3.10;99.90
22742;DHT22;11538;48.884;8.696;2022-12-10T14:33:38;3.10;99.90
22742;DHT22;11538;48.884;8.696;2022-12-10T14:36:06;3.10;99.90
22742;DHT22;11538;48.884;8.696;2022-12-10T14:38:33;3.10;99.90
22742;DHT22;11538;48.884;8.696;2022-12-10T14:41:02;3.10;99.90
22742;DHT22;11538;48.884;8.696;2022-12-10T14:43:32;3.10;99.90
22742;DHT22;11538;48.884;8.696;2022-12-10T14:46:04;3.10;99.90
22742;DHT22;11538;48.884;8.696;2022-12-10T14:48:38;3.10;99.90
22742;DHT22;11538;48.884;8.696;2022-12-10T14:51:14;3.10;99.90
22742;DHT22;11538;48.884;8.696;2022-12-10T14:53:43;3.10;99.90
22742;DHT22;11538;48.884;8.696;2022-12-10T14:56:11;3.10;99.90
22742;DHT22;11538;48.884;8.696;2022-12-10T14:58:50;3.10;99.90
22742;DHT22;11538;48.884;8.696;2022-12-10T15:01:32;3.10;99.90
22742;DHT22;11538;48.884;8.696;2022-12-10T15:04:05;3.10;99.90
22742;DHT22;11538;48.884;8.696;2022-12-10T15:06:39;3.10;99.90
22742;DHT22;11538;48.884;8.696;2022-12-10T15:09:09;3.10;99.90
22742;DHT22;11538;48.884;8.696;2022-12-10T15:11:51;3.10;99.90
22742;DHT22;11538;48.884;8.696;2022-12-10T15:14:22;3.00;99.90
22742;DHT22;11538;48.884;8.696;2022-12-10T15:16:50;3.00;99.90
22742;DHT22;11538;48.884;8.696;2022-12-10T15:19:34;3.00;99.90
22742;DHT22;11538;48.884;8.696;2022-12-10T15:22:15;3.00;99.90
22742;DHT22;11538;48.884;8.696;2022-12-10T15:24:45;3.00;99.90
22742;DHT22;11538;48.884;8.696;2022-12-10T15:27:16;3.00;99.90
22742;DHT22;11538;48.884;8.696;2022-12-10T15:29:45;3.00;99.90
22742;DHT22;11538;48.884;8.696;2022-12-10T15:32:13;2.90;99.90
22742;DHT22;11538;48.884;8.696;2022-12-10T15:34:45;2.90;99.90
22742;DHT22;11538;48.884;8.696;2022-12-10T15:37:26;3.00;99.90
22742;DHT22;11538;48.884;8.696;2022-12-10T15:39:59;2.90;99.90
22742;DHT22;11538;48.884;8.696;2022-12-10T15:42:31;2.90;99.90
22742;DHT22;11538;48.884;8.696;2022-12-10T15:45:24;2.90;99.90
22742;DHT22;11538;48.884;8.696;2022-12-10T15:47:53;2.90;99.90
22742;DHT22;11538;48.884;8.696;2022-12-10T15:50:25;2.90;99.90
22742;DHT22;11538;48.884;8.696;2022-12-10T15:52:52;2.90;99.90
22742;DHT22;11538;48.884;8.696;2022-12-10T15:55:19;2.90;99.90
22742;DHT22;11538;48.884;8.696;2022-12-10T15:57:46;2.90;99.90
22742;DHT22;11538;48.884;8.696;2022-12-10T16:00:23;2.80;99.90
22742;DHT22;11538;48.884;8.696;2022-12-10T16:02:56;2.80;99.90
22742;DHT22;11538;48.884;8.696;2022-12-10T16:05:32;2.80;99.90
22742;DHT22;11538;48.884;8.696;2022-12-10T16:08:05;2.80;99.90
22742;DHT22;11538;48.884;8.696;2022-12-10T16:10:38;2.80;99.90
22742;DHT22;11538;48.884;8.696;2022-12-10T16:13:06;2.80;99.90
22742;DHT22;11538;48.884;8.696;2022-12-10T16:15:43;2.80;99.90
22742;DHT22;11538;48.884;8.696;2022-12-10T16:18:13;2.80;99.90
22742;DHT22;11538;48.884;8.696;2022-12-10T16:20:40;2.80;99.90
22742;DHT22;11538;48.884;8.696;2022-12-10T16:23:06;2.80;99.90
22742;DHT22;11538;48.884;8.696;2022-12-10T16:25:33;2.80;99.90
22742;DHT22;11538;48.884;8.696;2022-12-10T16:28:03;2.80;99.90
22742;DHT22;11538;48.884;8.696;2022-12-10T16:30:37;2.70;99.90
22742;DHT22;11538;48.884;8.696;2022-12-10T16:33:14;2.70;99.90
22742;DHT22;11538;48.884;8.696;2022-12-10T16:35:42;2.70;99.90
22742;DHT22;11538;48.884;8.696;2022-12-10T16:38:09;2.70;99.90
22742;DHT22;11538;48.884;8.696;2022-12-10T16:40:37;2.70;99.90
22742;DHT22;11538;48.884;8.696;2022-12-10T16:43:05;2.70;99.90
22742;DHT22;11538;48.884;8.696;2022-12-10T16:45:36;2.70;99.90
22742;DHT22;11538;48.884;8.696;2022-12-10T16:48:05;2.70;99.90
22742;DHT22;11538;48.884;8.696;2022-12-10T16:50:32;2.70;99.90
22742;DHT22;11538;48.884;8.696;2022-12-10T16:53:01;2.70;99.90
22742;DHT22;11538;48.884;8.696;2022-12-10T16:55:30;2.70;99.90
22742;DHT22;11538;48.884;8.696;2022-12-10T16:57:59;2.70;99.90
22742;DHT22;11538;48.884;8.696;2022-12-10T17:00:26;2.70;99.90
22742;DHT22;11538;48.884;8.696;2022-12-10T17:02:54;2.70;99.90
22742;DHT22;11538;48.884;8.696;2022-12-10T17:05:27;2.70;99.90
22742;DHT22;11538;48.884;8.696;2022-12-10T17:07:57;2.70;99.90
22742;DHT22;11538;48.884;8.696;2022-12-10T17:10:24;2.70;99.90
22742;DHT22;11538;48.884;8.696;2022-12-10T17:13:10;2.70;99.90
22742;DHT22;11538;48.884;8.696;2022-12-10T17:15:39;2.70;99.90
22742;DHT22;11538;48.884;8.696;2022-12-10T17:18:15;2.70;99.90
22742;DHT22;11538;48.884;8.696;2022-12-10T17:20:44;2.70;99.90
22742;DHT22;11538;48.884;8.696;2022-12-10T17:23:12;2.70;99.90
22742;DHT22;11538;48.884;8.696;2022-12-10T17:25:40;2.70;99.90
22742;DHT22;11538;48.884;8.696;2022-12-10T17:28:15;2.70;99.90
22742;DHT22;11538;48.884;8.696;2022-12-10T17:30:44;2.70;99.90
22742;DHT22;11538;48.884;8.696;2022-12-10T17:33:12;2.70;99.90
22742;DHT22;11538;48.884;8.696;2022-12-10T17:35:41;2.70;99.90
22742;DHT22;11538;48.884;8.696;2022-12-10T17:38:19;2.70;99.90
22742;DHT22;11538;48.884;8.696;2022-12-10T17:40:49;2.70;99.90
22742;DHT22;11538;48.884;8.696;2022-12-10T17:43:16;2.70;99.90
22742;DHT22;11538;48.884;8.696;2022-12-10T17:45:43;2.60;99.90
22742;DHT22;11538;48.884;8.696;2022-12-10T17:48:12;2.60;99.90